Time;durP1;ratioP1;P1;durP2;ratioP2;P2;SDS_P1;SDS_P2;PMS_P1;PMS_P2;Temp;Humidity;BMP_temperature;BMP_pressure;BME280_temperature;BME280_humidity;BME280_pressure;Samples;Min_cycle;Max_cycle;Signal;HPM_P1;HPM_P2
2023/01/02 00:00:49;;;;;;;;;;;;;;;13.61;54.30;98456.09;7386308;19;19978;-77
2023/01/02 00:03:16;;;;;;;;;;;;;;;13.72;53.26;98449.56;7383635;19;19943;-78
2023/01/02 00:05:42;;;;;;;;;;;;;;;13.86;52.89;98449.81;7386714;19;19967;-78
2023/01/02 00:08:09;;;;;;;;;;;;;;;13.79;52.63;98455.81;7382203;19;19923;-78
2023/01/02 00:10:35;;;;;;;;;;;;;;;13.83;52.23;98435.03;7391108;19;19925;-78
2023/01/02 00:13:02;;;;;;;;;;;;;;;14.06;51.80;98432.41;7387264;19;20335;-77
2023/01/02 00:15:29;;;;;;;;;;;;;;;14.17;50.99;98425.84;7387133;19;19918;-78
2023/01/02 00:17:55;;;;;;;;;;;;;;;14.59;50.91;98429.88;7387273;19;19944;-77
2023/01/02 00:20:22;;;;;;;;;;;;;;;14.47;50.08;98421.44;7388495;19;19918;-79
2023/01/02 00:22:49;;;;;;;;;;;;;;;14.49;49.57;98430.91;7385228;19;19921;-78
2023/01/02 00:25:15;;;;;;;;;;;;;;;14.63;49.16;98420.50;7383586;19;20330;-78
2023/01/02 00:27:42;;;;;;;;;;;;;;;14.71;48.74;98421.25;7384483;19;20366;-78
2023/01/02 00:30:09;;;;;;;;;;;;;;;14.75;48.62;98421.72;7388648;19;20271;-79
2023/01/02 00:32:36;;;;;;;;;;;;;;;14.81;48.95;98410.34;7387944;19;19915;-78
2023/01/02 00:35:03;;;;;;;;;;;;;;;14.75;49.05;98403.09;7387227;19;19926;-78
2023/01/02 00:37:29;;;;;;;;;;;;;;;14.69;49.34;98409.13;7385344;19;19915;-78
2023/01/02 00:39:56;;;;;;;;;;;;;;;14.68;50.17;98402.16;7387344;19;19922;-78
2023/01/02 00:42:22;;;;;;;;;;;;;;;14.56;50.73;98416.91;7387969;19;19921;-80
2023/01/02 00:44:49;;;;;;;;;;;;;;;14.33;50.95;98401.78;7386975;19;19915;-77
2023/01/02 00:47:16;;;;;;;;;;;;;;;14.33;51.89;98404.44;7383156;19;19919;-77
2023/01/02 00:49:42;;;;;;;;;;;;;;;14.23;51.74;98409.16;7388691;19;20350;-77
2023/01/02 00:52:09;;;;;;;;;;;;;;;14.08;51.55;98400.28;7390413;19;19990;-78
2023/01/02 00:54:35;;;;;;;;;;;;;;;14.11;52.47;98405.25;7387559;19;19919;-77
2023/01/02 00:57:02;;;;;;;;;;;;;;;14.01;53.94;98411.66;7385632;19;19922;-77
2023/01/02 00:59:29;;;;;;;;;;;;;;;13.83;54.41;98409.25;7387510;19;19990;-77
2023/01/02 01:01:55;;;;;;;;;;;;;;;13.72;56.28;98417.66;7390637;19;19956;-77
2023/01/02 01:04:22;;;;;;;;;;;;;;;13.58;56.17;98421.84;7390951;19;19925;-77
2023/01/02 01:06:48;;;;;;;;;;;;;;;13.63;56.22;98426.66;7384197;19;19933;-78
2023/01/02 01:09:15;;;;;;;;;;;;;;;13.47;56.62;98424.91;7383699;19;19929;-78
2023/01/02 01:11:42;;;;;;;;;;;;;;;13.43;57.00;98428.06;7388062;19;19919;-78
2023/01/02 01:14:08;;;;;;;;;;;;;;;13.28;57.88;98422.66;7385135;19;19922;-78
2023/01/02 01:16:35;;;;;;;;;;;;;;;13.30;58.07;98424.16;7387520;19;20018;-77
2023/01/02 01:19:01;;;;;;;;;;;;;;;13.12;58.47;98426.16;7389338;19;19918;-78
2023/01/02 01:21:28;;;;;;;;;;;;;;;13.09;58.25;98432.66;7384057;19;19931;-77
2023/01/02 01:23:55;;;;;;;;;;;;;;;13.05;58.78;98423.34;7389927;19;20235;-77
2023/01/02 01:26:21;;;;;;;;;;;;;;;12.96;58.41;98421.72;7385551;19;19911;-78
2023/01/02 01:28:50;;;;;;;;;;;;;;;12.98;59.10;98424.19;7380917;19;20268;-78
2023/01/02 01:31:16;;;;;;;;;;;;;;;12.89;59.15;98423.41;7383595;19;19918;-77
2023/01/02 01:33:43;;;;;;;;;;;;;;;12.93;59.86;98433.53;7383131;19;19922;-78
2023/01/02 01:36:11;;;;;;;;;;;;;;;12.76;60.10;98431.06;7386353;19;19924;-78
2023/01/02 01:38:38;;;;;;;;;;;;;;;12.72;61.21;98436.72;7383429;19;19923;-78
2023/01/02 01:41:05;;;;;;;;;;;;;;;12.60;60.51;98446.00;7384032;19;20247;-78
2023/01/02 01:43:34;;;;;;;;;;;;;;;12.62;60.85;98445.84;7385379;19;19948;-77
2023/01/02 01:46:01;;;;;;;;;;;;;;;12.48;59.12;98450.81;7384005;19;20384;-78
2023/01/02 01:48:27;;;;;;;;;;;;;;;12.47;59.90;98446.50;7380381;19;20491;-78
2023/01/02 01:50:54;;;;;;;;;;;;;;;12.49;58.62;98452.47;7389700;19;19919;-77
2023/01/02 01:53:20;;;;;;;;;;;;;;;12.49;59.51;98454.31;7388281;19;19950;-78
2023/01/02 01:55:50;;;;;;;;;;;;;;;12.54;59.32;98449.31;7384393;19;19941;-77
2023/01/02 01:58:18;;;;;;;;;;;;;;;12.59;59.44;98424.94;7385333;19;19923;-77
2023/01/02 02:00:44;;;;;;;;;;;;;;;12.57;59.74;98440.22;7389144;19;19923;-78
2023/01/02 02:03:12;;;;;;;;;;;;;;;12.77;58.00;98438.00;7391421;19;19939;-79
2023/01/02 02:05:39;;;;;;;;;;;;;;;12.81;58.31;98440.16;7395686;19;19974;-78
2023/01/02 02:08:08;;;;;;;;;;;;;;;12.94;57.46;98434.34;7391671;19;19914;-79
2023/01/02 02:10:35;;;;;;;;;;;;;;;13.08;57.05;98435.47;7390321;19;19922;-79
2023/01/02 02:13:02;;;;;;;;;;;;;;;13.10;55.68;98428.97;7392396;19;19918;-78
2023/01/02 02:15:38;;;;;;;;;;;;;;;13.28;56.20;98430.63;7392237;19;19914;-78
2023/01/02 02:18:20;;;;;;;;;;;;;;;13.27;57.02;98432.47;7389704;19;19918;-78
2023/01/02 02:21:10;;;;;;;;;;;;;;;13.30;55.68;98426.00;7392675;19;20380;-79
2023/01/02 02:23:55;;;;;;;;;;;;;;;13.20;56.39;98428.81;7395695;19;19926;-77
2023/01/02 02:26:25;;;;;;;;;;;;;;;13.00;57.78;98422.22;7394351;19;19933;-78
2023/01/02 02:29:01;;;;;;;;;;;;;;;13.11;57.16;98417.38;7389283;19;19922;-79
2023/01/02 02:31:37;;;;;;;;;;;;;;;12.98;58.02;98414.44;7389730;19;19923;-78
2023/01/02 02:34:08;;;;;;;;;;;;;;;12.75;58.47;98406.34;7390015;19;19919;-78
2023/01/02 02:36:36;;;;;;;;;;;;;;;12.59;59.39;98398.41;7391626;19;20381;-78
2023/01/02 02:39:16;;;;;;;;;;;;;;;12.30;59.95;98382.00;7396543;19;20330;-78
2023/01/02 02:41:56;;;;;;;;;;;;;;;12.22;60.60;98381.19;7392877;19;19919;-81
2023/01/02 02:44:29;;;;;;;;;;;;;;;12.27;60.19;98384.19;7392667;19;19921;-78
2023/01/02 02:46:58;;;;;;;;;;;;;;;12.18;60.47;98383.31;7394617;19;19950;-78
2023/01/02 02:49:30;;;;;;;;;;;;;;;12.07;61.00;98381.84;7391612;19;19914;-78
2023/01/02 02:52:06;;;;;;;;;;;;;;;11.82;61.85;98380.09;7391501;19;19922;-79
2023/01/02 02:54:47;;;;;;;;;;;;;;;11.83;61.77;98382.59;7391700;19;19923;-78
2023/01/02 02:57:14;;;;;;;;;;;;;;;11.79;61.75;98381.25;7391599;19;19921;-79
2023/01/02 02:59:40;;;;;;;;;;;;;;;11.77;61.91;98387.72;7390972;19;20314;-78
2023/01/02 03:02:08;;;;;;;;;;;;;;;11.79;61.74;98389.22;7391544;19;19922;-78
2023/01/02 03:04:35;;;;;;;;;;;;;;;11.81;61.92;98381.94;7393488;19;19927;-77
2023/01/02 03:07:15;;;;;;;;;;;;;;;11.72;61.89;98379.47;7391372;19;20657;-78
2023/01/02 03:09:42;;;;;;;;;;;;;;;11.76;61.71;98378.94;7388762;19;19944;-78
2023/01/02 03:12:08;;;;;;;;;;;;;;;11.83;61.00;98376.50;7387939;19;20355;-79
2023/01/02 03:14:50;;;;;;;;;;;;;;;11.83;60.73;98372.00;7390273;19;19940;-78
2023/01/02 03:17:18;;;;;;;;;;;;;;;11.74;61.05;98374.78;7390405;19;19943;-79
2023/01/02 03:19:46;;;;;;;;;;;;;;;11.89;60.64;98369.72;7390788;19;19914;-78
2023/01/02 03:22:18;;;;;;;;;;;;;;;11.88;60.16;98368.91;7388119;19;19925;-78
2023/01/02 03:24:44;;;;;;;;;;;;;;;11.91;60.30;98378.34;7392797;19;19926;-78
2023/01/02 03:27:13;;;;;;;;;;;;;;;11.86;60.53;98381.47;7388303;19;20413;-80
2023/01/02 03:29:51;;;;;;;;;;;;;;;11.96;60.36;98384.00;7386360;19;19918;-78
2023/01/02 03:32:25;;;;;;;;;;;;;;;12.01;59.81;98392.28;7391376;19;20252;-79
2023/01/02 03:34:52;;;;;;;;;;;;;;;12.16;59.77;98377.34;7391161;19;19923;-78
2023/01/02 03:37:21;;;;;;;;;;;;;;;12.10;59.24;98380.69;7390762;19;20277;-78
2023/01/02 03:39:49;;;;;;;;;;;;;;;12.10;59.27;98377.19;7388488;19;19915;-78
2023/01/02 03:42:27;;;;;;;;;;;;;;;12.20;58.99;98380.53;7389094;19;19919;-78
2023/01/02 03:44:56;;;;;;;;;;;;;;;12.34;57.83;98379.03;7388718;19;19926;-78
2023/01/02 03:47:27;;;;;;;;;;;;;;;12.45;57.62;98376.00;7389308;19;19921;-78
2023/01/02 03:49:54;;;;;;;;;;;;;;;12.55;56.97;98368.72;7386181;19;19911;-78
2023/01/02 03:52:21;;;;;;;;;;;;;;;12.66;56.71;98367.53;7389190;19;19923;-78
2023/01/02 03:54:51;;;;;;;;;;;;;;;12.61;56.90;98376.03;7392360;19;19948;-78
2023/01/02 03:57:21;;;;;;;;;;;;;;;12.73;56.21;98377.31;7388039;19;19919;-77
2023/01/02 04:00:02;;;;;;;;;;;;;;;12.74;56.41;98375.47;7383662;19;19918;-77
2023/01/02 04:02:41;;;;;;;;;;;;;;;12.72;57.17;98375.66;7386916;19;19945;-77
2023/01/02 04:05:09;;;;;;;;;;;;;;;12.71;57.22;98381.94;7390284;19;19929;-77
2023/01/02 04:07:56;;;;;;;;;;;;;;;12.74;57.64;98376.31;7386890;19;19929;-78
2023/01/02 04:10:23;;;;;;;;;;;;;;;12.67;56.90;98385.94;7386917;19;20555;-78
2023/01/02 04:12:50;;;;;;;;;;;;;;;12.76;56.92;98386.75;7386259;19;20340;-77
2023/01/02 04:15:17;;;;;;;;;;;;;;;12.71;56.93;98389.09;7385564;19;19929;-78
2023/01/02 04:17:44;;;;;;;;;;;;;;;12.77;57.28;98385.78;7383770;19;20316;-78
2023/01/02 04:20:19;;;;;;;;;;;;;;;12.62;57.00;98371.53;7386500;19;19922;-78
2023/01/02 04:22:51;;;;;;;;;;;;;;;12.66;56.99;98378.13;7388330;19;19918;-78
2023/01/02 04:25:18;;;;;;;;;;;;;;;12.64;57.12;98373.03;7386059;19;19927;-78
2023/01/02 04:27:50;;;;;;;;;;;;;;;12.62;56.84;98369.69;7386900;19;19930;-77
2023/01/02 04:30:16;;;;;;;;;;;;;;;12.59;57.11;98374.53;7381543;19;19915;-77
2023/01/02 04:32:43;;;;;;;;;;;;;;;12.55;57.44;98366.06;7385449;19;19938;-78
2023/01/02 04:35:14;;;;;;;;;;;;;;;12.42;58.18;98358.59;7378224;19;19915;-77
2023/01/02 04:37:41;;;;;;;;;;;;;;;12.41;57.80;98358.78;7386095;19;19926;-77
2023/01/02 04:40:12;;;;;;;;;;;;;;;12.39;57.55;98345.69;7389069;19;19927;-77
2023/01/02 04:42:39;;;;;;;;;;;;;;;12.46;56.95;98357.28;7386754;19;19926;-77
2023/01/02 04:45:06;;;;;;;;;;;;;;;12.64;56.67;98350.97;7383066;19;20352;-77
2023/01/02 04:47:32;;;;;;;;;;;;;;;12.68;56.62;98339.00;7380743;19;19929;-77
2023/01/02 04:49:59;;;;;;;;;;;;;;;12.81;56.16;98343.78;7382109;19;20404;-77
2023/01/02 04:52:25;;;;;;;;;;;;;;;12.76;55.79;98343.47;7384668;19;20402;-77
2023/01/02 04:54:57;;;;;;;;;;;;;;;12.92;55.05;98341.56;7385820;19;20583;-77
2023/01/02 04:57:24;;;;;;;;;;;;;;;13.05;54.55;98342.84;7386513;19;19922;-77
2023/01/02 04:59:50;;;;;;;;;;;;;;;13.04;54.23;98339.38;7385785;19;19919;-77
2023/01/02 05:02:17;;;;;;;;;;;;;;;13.18;54.07;98341.28;7386950;19;20366;-77
2023/01/02 05:04:43;;;;;;;;;;;;;;;13.13;53.82;98337.50;7384718;19;19922;-77
2023/01/02 05:07:10;;;;;;;;;;;;;;;13.13;54.42;98340.97;7382471;19;19925;-77
2023/01/02 05:09:36;;;;;;;;;;;;;;;13.08;55.18;98345.97;7386706;19;20279;-77
2023/01/02 05:12:03;;;;;;;;;;;;;;;13.04;54.62;98344.69;7389226;19;20347;-77
2023/01/02 05:14:30;;;;;;;;;;;;;;;12.89;55.08;98349.06;7385588;19;19919;-77
2023/01/02 05:16:56;;;;;;;;;;;;;;;12.87;55.43;98348.38;7385096;19;19927;-78
2023/01/02 05:19:23;;;;;;;;;;;;;;;12.83;55.79;98363.03;7384570;19;19960;-78
2023/01/02 05:24:35;;;;;;;;;;;;;;;12.74;56.02;98351.56;7386114;19;19950;-78
2023/01/02 05:27:01;;;;;;;;;;;;;;;12.76;56.02;98359.38;7385488;19;19931;-77
2023/01/02 05:29:29;;;;;;;;;;;;;;;12.65;56.58;98364.06;7383869;19;19911;-76
2023/01/02 05:31:56;;;;;;;;;;;;;;;12.52;57.66;98361.09;7389418;19;19914;-76
2023/01/02 05:34:22;;;;;;;;;;;;;;;12.32;58.71;98362.44;7386439;19;19918;-77
2023/01/02 05:36:49;;;;;;;;;;;;;;;12.25;59.26;98365.75;7383213;19;20282;-77
2023/01/02 05:39:15;;;;;;;;;;;;;;;12.24;59.37;98363.25;7385267;19;19953;-78
2023/01/02 05:41:42;;;;;;;;;;;;;;;12.06;59.62;98371.41;7385518;19;20010;-77
2023/01/02 05:44:09;;;;;;;;;;;;;;;11.69;61.67;98367.34;7378471;19;19948;-77
2023/01/02 05:46:36;;;;;;;;;;;;;;;11.71;61.16;98357.41;7384655;19;20125;-76
2023/01/02 05:49:03;;;;;;;;;;;;;;;11.89;60.89;98367.91;7383635;19;19922;-77
2023/01/02 05:51:30;;;;;;;;;;;;;;;11.81;60.99;98370.50;7388209;19;19926;-77
2023/01/02 05:53:56;;;;;;;;;;;;;;;11.59;60.58;98370.16;7380877;19;19911;-77
2023/01/02 05:56:23;;;;;;;;;;;;;;;11.56;61.47;98364.34;7383013;19;19927;-77
2023/01/02 05:58:49;;;;;;;;;;;;;;;11.67;60.36;98366.69;7372704;19;19934;-78
2023/01/02 06:01:17;;;;;;;;;;;;;;;11.84;60.24;98373.66;7382429;19;19919;-77
2023/01/02 06:03:45;;;;;;;;;;;;;;;11.82;60.98;98367.72;7386435;19;20458;-78
2023/01/02 06:06:12;;;;;;;;;;;;;;;11.84;60.96;98372.81;7387303;19;19930;-78
2023/01/02 06:08:38;;;;;;;;;;;;;;;11.88;60.74;98379.50;7383423;19;19915;-78
2023/01/02 06:11:05;;;;;;;;;;;;;;;11.80;60.68;98380.28;7383511;19;19929;-78
2023/01/02 06:13:32;;;;;;;;;;;;;;;11.78;61.39;98384.91;7383380;19;19936;-78
2023/01/02 06:16:00;;;;;;;;;;;;;;;11.69;61.81;98385.06;7384050;19;19937;-78
2023/01/02 06:18:26;;;;;;;;;;;;;;;11.67;60.88;98393.19;7384753;19;20652;-77
2023/01/02 06:20:57;;;;;;;;;;;;;;;11.67;61.12;98392.38;7388781;19;20670;-77
2023/01/02 06:23:23;;;;;;;;;;;;;;;11.58;62.19;98394.13;7379963;19;19918;-77
2023/01/02 06:25:50;;;;;;;;;;;;;;;11.54;62.18;98398.13;7382680;19;19926;-76
2023/01/02 06:28:17;;;;;;;;;;;;;;;11.47;63.22;98397.91;7383134;19;19914;-77
2023/01/02 06:30:43;;;;;;;;;;;;;;;11.49;62.46;98401.25;7381356;19;19915;-77
2023/01/02 06:33:10;;;;;;;;;;;;;;;11.45;61.12;98401.72;7383431;19;19918;-77
2023/01/02 06:35:36;;;;;;;;;;;;;;;11.42;61.74;98401.03;7388543;19;19939;-77
2023/01/02 06:38:03;;;;;;;;;;;;;;;11.53;61.94;98404.41;7386225;19;19919;-77
2023/01/02 06:40:29;;;;;;;;;;;;;;;11.39;62.07;98401.38;7386449;19;19930;-77
2023/01/02 06:42:56;;;;;;;;;;;;;;;11.29;63.28;98394.53;7383049;19;19931;-78
2023/01/02 06:45:25;;;;;;;;;;;;;;;11.19;63.12;98395.50;7386665;19;19932;-78
2023/01/02 06:47:56;;;;;;;;;;;;;;;11.17;63.32;98401.97;7390009;19;20380;-78
2023/01/02 06:50:24;;;;;;;;;;;;;;;11.34;62.41;98410.78;7393211;19;19915;-78
2023/01/02 06:52:59;;;;;;;;;;;;;;;11.49;61.95;98414.50;7391998;19;20411;-78
2023/01/02 06:55:26;;;;;;;;;;;;;;;11.66;60.97;98412.72;7394061;19;19930;-78
2023/01/02 06:57:52;;;;;;;;;;;;;;;11.72;61.26;98414.72;7391049;19;19922;-78
2023/01/02 07:00:19;;;;;;;;;;;;;;;11.71;60.93;98422.84;7392665;19;19986;-77
2023/01/02 07:02:46;;;;;;;;;;;;;;;11.50;60.75;98415.31;7392016;19;19914;-77
2023/01/02 07:05:12;;;;;;;;;;;;;;;11.34;61.38;98421.38;7387010;19;19926;-77
2023/01/02 07:07:45;;;;;;;;;;;;;;;11.48;61.65;98425.25;7391171;19;19918;-77
2023/01/02 07:10:11;;;;;;;;;;;;;;;11.41;61.58;98433.84;7391658;19;19914;-77
2023/01/02 07:12:38;;;;;;;;;;;;;;;11.24;62.88;98432.09;7394037;19;19915;-77
2023/01/02 07:15:05;;;;;;;;;;;;;;;11.25;62.43;98441.72;7388329;19;19921;-77
2023/01/02 07:17:32;;;;;;;;;;;;;;;11.15;62.35;98443.66;7390709;19;19923;-77
2023/01/02 07:19:58;;;;;;;;;;;;;;;11.11;62.99;98444.94;7391465;19;19919;-77
2023/01/02 07:22:27;;;;;;;;;;;;;;;11.02;63.77;98452.00;7391077;19;19919;-77
2023/01/02 07:24:54;;;;;;;;;;;;;;;11.03;62.93;98458.13;7392887;19;19926;-77
2023/01/02 07:27:20;;;;;;;;;;;;;;;11.21;62.31;98466.84;7389915;19;19951;-77
2023/01/02 07:29:47;;;;;;;;;;;;;;;11.02;63.98;98467.06;7387232;19;19925;-76
2023/01/02 07:32:13;;;;;;;;;;;;;;;11.20;61.79;98465.19;7393078;19;19956;-76
2023/01/02 07:34:40;;;;;;;;;;;;;;;11.31;62.19;98467.56;7388096;19;20283;-77
2023/01/02 07:37:07;;;;;;;;;;;;;;;11.28;62.06;98470.53;7389634;19;19930;-77
2023/01/02 07:39:33;;;;;;;;;;;;;;;11.35;62.09;98473.38;7392373;19;19968;-77
2023/01/02 07:42:00;;;;;;;;;;;;;;;11.30;62.69;98476.50;7393626;19;19955;-77
2023/01/02 07:44:26;;;;;;;;;;;;;;;11.23;62.83;98477.28;7391724;19;20361;-76
2023/01/02 07:46:53;;;;;;;;;;;;;;;11.23;62.30;98478.09;7388360;19;19915;-76
2023/01/02 07:49:20;;;;;;;;;;;;;;;11.16;63.33;98479.72;7389481;19;19933;-77
2023/01/02 07:51:46;;;;;;;;;;;;;;;11.05;63.91;98477.34;7390387;19;19927;-76
2023/01/02 07:54:13;;;;;;;;;;;;;;;11.03;63.91;98481.97;7386758;19;19929;-77
2023/01/02 07:56:39;;;;;;;;;;;;;;;11.11;63.90;98487.31;7387400;19;19918;-76
2023/01/02 07:59:06;;;;;;;;;;;;;;;11.11;63.16;98487.31;7389356;19;19927;-74
2023/01/02 08:01:32;;;;;;;;;;;;;;;11.12;64.02;98488.97;7390771;19;19930;-74
2023/01/02 08:03:59;;;;;;;;;;;;;;;11.20;62.17;98489.84;7389046;19;20540;-74
2023/01/02 08:06:26;;;;;;;;;;;;;;;11.35;62.75;98482.16;7386289;19;19915;-74
2023/01/02 08:08:52;;;;;;;;;;;;;;;11.40;62.37;98486.97;7385197;19;19918;-75
2023/01/02 08:11:20;;;;;;;;;;;;;;;11.57;61.92;98483.41;7388125;19;19945;-76
2023/01/02 08:13:47;;;;;;;;;;;;;;;11.63;61.53;98493.34;7389492;19;19915;-76
2023/01/02 08:16:14;;;;;;;;;;;;;;;11.79;61.05;98492.59;7390795;19;19930;-77
2023/01/02 08:18:41;;;;;;;;;;;;;;;11.77;61.71;98496.38;7385906;19;20331;-77
2023/01/02 08:21:08;;;;;;;;;;;;;;;11.73;60.02;98492.41;7392199;19;19918;-76
2023/01/02 08:23:34;;;;;;;;;;;;;;;11.75;60.10;98495.75;7389456;19;19922;-76
2023/01/02 08:26:02;;;;;;;;;;;;;;;11.87;61.29;98505.06;7386526;19;19919;-77
2023/01/02 08:28:29;;;;;;;;;;;;;;;11.95;60.87;98502.44;7385482;19;19915;-77
2023/01/02 08:30:55;;;;;;;;;;;;;;;11.99;60.54;98506.44;7385639;19;19933;-77
2023/01/02 08:33:22;;;;;;;;;;;;;;;12.05;61.47;98510.28;7391397;19;20374;-77
2023/01/02 08:35:48;;;;;;;;;;;;;;;12.19;61.11;98507.00;7389361;19;20392;-77
2023/01/02 08:38:15;;;;;;;;;;;;;;;12.16;61.10;98509.13;7387684;19;19948;-76
2023/01/02 08:40:42;;;;;;;;;;;;;;;12.24;60.72;98517.97;7386649;19;20281;-77
2023/01/02 08:43:08;;;;;;;;;;;;;;;12.29;59.86;98515.63;7388558;19;19911;-76
2023/01/02 08:45:35;;;;;;;;;;;;;;;12.31;59.21;98520.78;7387297;19;19915;-77
2023/01/02 08:48:01;;;;;;;;;;;;;;;12.40;59.18;98513.66;7389272;19;19923;-77
2023/01/02 08:50:46;;;;;;;;;;;;;;;12.51;59.37;98516.00;7386953;19;19926;-77
2023/01/02 08:53:13;;;;;;;;;;;;;;;12.61;58.20;98519.34;7391306;19;19914;-77
2023/01/02 08:55:39;;;;;;;;;;;;;;;12.58;57.49;98524.94;7391282;19;19930;-78
2023/01/02 08:58:06;;;;;;;;;;;;;;;12.87;58.57;98523.63;7385521;19;20015;-77
2023/01/02 09:00:33;;;;;;;;;;;;;;;13.04;57.34;98513.84;7385287;19;19922;-77
2023/01/02 09:02:59;;;;;;;;;;;;;;;13.06;57.11;98510.03;7388412;19;19914;-77
2023/01/02 09:05:29;;;;;;;;;;;;;;;13.17;55.57;98514.16;7389909;19;19926;-78
2023/01/02 09:07:56;;;;;;;;;;;;;;;13.35;55.03;98508.69;7387869;19;19990;-77
2023/01/02 09:10:23;;;;;;;;;;;;;;;13.45;55.09;98511.94;7387507;19;19915;-77
2023/01/02 09:12:49;;;;;;;;;;;;;;;13.60;56.03;98520.03;7386171;19;19922;-77
2023/01/02 09:15:16;;;;;;;;;;;;;;;13.70;55.31;98528.66;7385368;19;19926;-77
2023/01/02 09:17:42;;;;;;;;;;;;;;;13.79;56.67;98532.94;7384674;19;19947;-78
2023/01/02 09:20:09;;;;;;;;;;;;;;;13.78;57.23;98533.13;7389371;19;20331;-76
2023/01/02 09:22:36;;;;;;;;;;;;;;;13.72;57.17;98531.16;7387810;19;19911;-77
2023/01/02 09:25:03;;;;;;;;;;;;;;;13.61;56.72;98538.50;7389278;19;19918;-77
2023/01/02 09:27:29;;;;;;;;;;;;;;;13.71;57.02;98534.78;7388144;19;20374;-77
2023/01/02 09:29:56;;;;;;;;;;;;;;;13.68;56.23;98549.25;7383952;19;19914;-77
2023/01/02 09:32:22;;;;;;;;;;;;;;;13.75;56.01;98549.41;7384414;19;19922;-77
2023/01/02 09:34:49;;;;;;;;;;;;;;;13.77;56.05;98542.94;7385606;19;19923;-77
2023/01/02 09:37:16;;;;;;;;;;;;;;;13.96;55.08;98551.50;7380711;19;19919;-77
2023/01/02 09:39:43;;;;;;;;;;;;;;;14.13;55.32;98554.91;7387546;19;19925;-77
2023/01/02 09:42:12;;;;;;;;;;;;;;;14.24;54.83;98559.81;7388169;19;19929;-77
2023/01/02 09:44:45;;;;;;;;;;;;;;;14.35;54.11;98559.44;7383232;19;19923;-77
2023/01/02 09:47:13;;;;;;;;;;;;;;;14.49;54.89;98564.00;7374941;19;19922;-77
2023/01/02 09:49:40;;;;;;;;;;;;;;;14.48;54.91;98561.50;7380520;19;19939;-78
2023/01/02 09:52:06;;;;;;;;;;;;;;;14.60;54.71;98560.13;7385429;19;19933;-76
2023/01/02 09:54:33;;;;;;;;;;;;;;;14.64;54.20;98563.25;7382910;19;19919;-77
2023/01/02 09:57:23;;;;;;;;;;;;;;;14.67;52.30;98565.59;7375147;19;19919;-77
2023/01/02 09:59:50;;;;;;;;;;;;;;;14.69;51.45;98572.41;7383021;19;19919;-77
2023/01/02 10:02:16;;;;;;;;;;;;;;;14.77;52.09;98566.19;7385471;19;20002;-76
2023/01/02 10:05:03;;;;;;;;;;;;;;;14.83;53.66;98569.97;7382565;19;19927;-77
2023/01/02 10:07:32;;;;;;;;;;;;;;;14.93;51.58;98574.06;7381175;19;19918;-79
2023/01/02 10:09:59;;;;;;;;;;;;;;;15.08;52.85;98579.41;7384737;19;20369;-77
2023/01/02 10:12:31;;;;;;;;;;;;;;;15.20;53.69;98576.34;7384418;19;19959;-77
2023/01/02 10:15:01;;;;;;;;;;;;;;;15.09;51.80;98577.59;7382363;19;19923;-78
2023/01/02 10:17:28;;;;;;;;;;;;;;;15.02;50.89;98579.31;7385411;19;19910;-78
2023/01/02 10:19:57;;;;;;;;;;;;;;;15.20;50.63;98584.34;7383051;19;19918;-78
2023/01/02 10:22:44;;;;;;;;;;;;;;;15.42;51.13;98590.63;7385460;19;19915;-77
2023/01/02 10:25:14;;;;;;;;;;;;;;;15.50;50.61;98582.53;7391379;19;20299;-78
2023/01/02 10:27:54;;;;;;;;;;;;;;;15.54;49.56;98590.00;7390706;19;20529;-78
2023/01/02 10:30:22;;;;;;;;;;;;;;;15.81;48.27;98593.09;7391177;19;20377;-78
2023/01/02 10:33:09;;;;;;;;;;;;;;;15.98;48.14;98597.22;7392760;19;19915;-78
2023/01/02 10:35:43;;;;;;;;;;;;;;;16.11;47.54;98601.06;7389501;19;19939;-78
2023/01/02 10:38:10;;;;;;;;;;;;;;;16.23;47.88;98602.25;7386078;19;19925;-77
2023/01/02 10:40:37;;;;;;;;;;;;;;;16.26;49.09;98603.72;7387747;19;19952;-77
2023/01/02 10:43:03;;;;;;;;;;;;;;;15.73;49.10;98604.66;7389300;19;19937;-77
2023/01/02 10:45:30;;;;;;;;;;;;;;;15.95;50.21;98602.09;7388180;19;19919;-76
2023/01/02 10:47:56;;;;;;;;;;;;;;;16.28;49.32;98601.72;7391421;19;19927;-77
2023/01/02 10:50:35;;;;;;;;;;;;;;;16.40;49.05;98589.50;7392954;19;19919;-76
2023/01/02 10:53:08;;;;;;;;;;;;;;;16.82;45.45;98591.44;7390205;19;19918;-78
2023/01/02 10:55:40;;;;;;;;;;;;;;;17.13;44.73;98590.28;7386768;19;19927;-77
2023/01/02 10:58:26;;;;;;;;;;;;;;;17.17;44.39;98586.22;7386076;19;19914;-77
2023/01/02 11:01:06;;;;;;;;;;;;;;;17.40;44.17;98585.97;7390680;19;19930;-76
2023/01/02 11:03:35;;;;;;;;;;;;;;;17.41;44.45;98584.16;7391052;19;20290;-77
2023/01/02 11:06:02;;;;;;;;;;;;;;;17.39;44.22;98600.38;7392093;19;19947;-75
2023/01/02 11:08:59;;;;;;;;;;;;;;;17.42;43.10;98594.63;7389977;19;19918;-76
2023/01/02 11:11:26;;;;;;;;;;;;;;;17.41;43.37;98594.84;7389862;19;20346;-75
2023/01/02 11:13:56;;;;;;;;;;;;;;;17.50;43.92;98586.47;7388795;19;20638;-77
2023/01/02 11:16:23;;;;;;;;;;;;;;;17.61;43.02;98589.63;7387727;19;19982;-76
2023/01/02 11:18:51;;;;;;;;;;;;;;;17.61;43.33;98597.66;7388208;19;19974;-77
2023/01/02 11:21:28;;;;;;;;;;;;;;;17.74;42.94;98585.19;7392612;19;19941;-77
2023/01/02 11:23:59;;;;;;;;;;;;;;;17.83;41.41;98585.91;7388925;19;19954;-77
2023/01/02 11:26:25;;;;;;;;;;;;;;;18.01;42.49;98576.50;7385176;19;20354;-76
2023/01/02 11:28:52;;;;;;;;;;;;;;;17.99;40.16;98580.22;7380958;19;20347;-76
2023/01/02 11:31:18;;;;;;;;;;;;;;;18.13;42.86;98586.44;7381503;19;19915;-76
2023/01/02 11:33:48;;;;;;;;;;;;;;;18.15;40.40;98586.25;7387859;19;19923;-75
2023/01/02 11:36:16;;;;;;;;;;;;;;;18.18;40.90;98584.00;7391285;19;19930;-74
2023/01/02 11:38:42;;;;;;;;;;;;;;;18.29;40.51;98584.47;7386118;19;20011;-75
2023/01/02 11:41:20;;;;;;;;;;;;;;;18.15;40.74;98580.91;7387823;19;19926;-76
2023/01/02 11:43:50;;;;;;;;;;;;;;;18.19;39.63;98585.69;7387337;19;19922;-76
2023/01/02 11:46:21;;;;;;;;;;;;;;;18.38;39.44;98584.09;7386331;19;19919;-77
2023/01/02 11:48:48;;;;;;;;;;;;;;;18.27;39.23;98581.97;7379939;19;19915;-76
2023/01/02 11:51:15;;;;;;;;;;;;;;;18.16;39.63;98590.59;7384551;19;19929;-87
2023/01/02 11:53:45;;;;;;;;;;;;;;;18.32;41.93;98587.56;7391996;19;19999;-86
2023/01/02 11:56:16;;;;;;;;;;;;;;;18.42;41.66;98590.69;7388121;19;19919;-86
2023/01/02 11:58:52;;;;;;;;;;;;;;;18.46;39.99;98595.63;7382595;19;19922;-86
2023/01/02 12:01:24;;;;;;;;;;;;;;;18.37;42.25;98585.09;7386784;19;19922;-87
2023/01/02 12:03:51;;;;;;;;;;;;;;;18.27;41.01;98586.50;7398559;19;19966;-86
2023/01/02 12:06:18;;;;;;;;;;;;;;;18.18;45.31;98592.03;7387236;19;19925;-87
2023/01/02 12:08:59;;;;;;;;;;;;;;;18.14;43.23;98590.81;7389769;19;19918;-86
2023/01/02 12:11:29;;;;;;;;;;;;;;;18.13;43.26;98591.00;7386235;19;20353;-87
2023/01/02 12:13:58;;;;;;;;;;;;;;;17.88;46.10;98588.81;7386455;19;19925;-88
2023/01/02 12:16:37;;;;;;;;;;;;;;;17.64;46.76;98599.94;7389161;19;19927;-88
2023/01/02 12:19:12;;;;;;;;;;;;;;;17.62;43.04;98605.50;7387755;19;19918;-86
2023/01/02 12:21:45;;;;;;;;;;;;;;;17.70;40.21;98602.66;7384749;19;19918;-89
2023/01/02 12:24:32;;;;;;;;;;;;;;;17.86;41.82;98601.56;7389205;19;19987;-87
2023/01/02 12:27:16;;;;;;;;;;;;;;;17.73;45.73;98604.94;7387914;19;19922;-88
2023/01/02 12:29:46;;;;;;;;;;;;;;;17.65;46.28;98598.94;7384298;19;19926;-89
2023/01/02 12:32:40;;;;;;;;;;;;;;;17.69;44.86;98593.00;7383603;19;19939;-90
2023/01/02 12:35:20;;;;;;;;;;;;;;;17.60;47.73;98594.16;7379737;19;20378;-90
2023/01/02 12:37:48;;;;;;;;;;;;;;;17.47;48.84;98586.03;7379697;19;20378;-89
2023/01/02 12:40:24;;;;;;;;;;;;;;;17.30;49.06;98585.50;7386406;19;19982;-89
2023/01/02 12:43:06;;;;;;;;;;;;;;;17.21;51.28;98589.31;7385546;19;19997;-89
2023/01/02 12:45:51;;;;;;;;;;;;;;;16.98;51.74;98585.03;7382884;19;19923;-84
2023/01/02 12:48:18;;;;;;;;;;;;;;;16.98;52.30;98595.72;7385583;19;19915;-85
2023/01/02 12:50:47;;;;;;;;;;;;;;;17.08;50.34;98598.88;7385885;19;19914;-89
2023/01/02 12:53:25;;;;;;;;;;;;;;;16.99;47.30;98602.72;7382296;19;19935;-85
2023/01/02 12:55:55;;;;;;;;;;;;;;;17.21;47.49;98608.03;7387392;19;20270;-85
2023/01/02 12:58:36;;;;;;;;;;;;;;;17.34;47.02;98608.16;7385835;19;19918;-87
2023/01/02 13:01:02;;;;;;;;;;;;;;;17.41;49.37;98606.38;7384223;19;19922;-85